Time;durP1;ratioP1;P1;durP2;ratioP2;P2;SDS_P1;SDS_P2;PMS_P1;PMS_P2;Temp;Humidity;BMP_temperature;BMP_pressure;BME280_temperature;BME280_humidity;BME280_pressure;Samples;Min_cycle;Max_cycle;Signal;HPM_P1;HPM_P2
2021/07/16 00:01:53;;;;;;;3.55;0.98;;;;;;;;;;5052582;28;20143;-65
2021/07/16 00:04:22;;;;;;;1.02;0.70;;;;;;;;;;5013225;28;1088126;-64
2021/07/16 00:06:50;;;;;;;3.67;0.73;;;;;;;;;;5052049;28;20055;-65
2021/07/16 00:09:19;;;;;;;2.35;0.77;;;;;;;;;;5048174;28;20077;-64
2021/07/16 00:11:49;;;;;;;1.55;0.75;;;;;;;;;;5050203;28;20141;-65
2021/07/16 00:14:17;;;;;;;1.35;0.70;;;;;;;;;;5052978;28;20083;-65
2021/07/16 00:16:46;;;;;;;1.98;0.80;;;;;;;;;;5047734;28;20330;-64
2021/07/16 00:19:16;;;;;;;2.55;0.80;;;;;;;;;;5053333;28;20151;-65
2021/07/16 00:21:44;;;;;;;1.17;0.65;;;;;;;;;;5052357;28;20048;-65
2021/07/16 00:24:13;;;;;;;1.80;0.90;;;;;;;;;;5052354;28;20060;-65
2021/07/16 00:26:41;;;;;;;4.15;0.80;;;;;;;;;;5052538;28;20075;-65
2021/07/16 00:29:11;;;;;;;1.95;0.55;;;;;;;;;;5052635;28;20124;-65
2021/07/16 00:31:39;;;;;;;0.65;0.60;;;;;;;;;;5052560;28;20110;-65
2021/07/16 00:34:08;;;;;;;2.58;0.77;;;;;;;;;;5052286;28;20076;-65
2021/07/16 00:36:36;;;;;;;2.65;0.90;;;;;;;;;;5051780;28;20123;-65
2021/07/16 00:39:05;;;;;;;2.67;0.70;;;;;;;;;;5052613;28;20053;-65
2021/07/16 00:41:33;;;;;;;3.45;0.93;;;;;;;;;;5052824;28;20467;-65
2021/07/16 00:44:02;;;;;;;1.05;0.70;;;;;;;;;;5052942;28;20084;-65
2021/07/16 00:46:31;;;;;;;3.15;0.85;;;;;;;;;;5052651;28;20103;-65
2021/07/16 00:49:00;;;;;;;2.17;0.80;;;;;;;;;;5050407;28;20053;-65
2021/07/16 00:51:28;;;;;;;1.63;0.60;;;;;;;;;;5051608;28;20080;-65
2021/07/16 00:53:56;;;;;;;0.95;0.65;;;;;;;;;;5044112;28;20548;-65
2021/07/16 00:56:25;;;;;;;1.10;0.60;;;;;;;;;;5051096;28;20099;-65
2021/07/16 00:58:53;;;;;;;2.60;0.60;;;;;;;;;;5051149;28;20143;-65
2021/07/16 01:01:22;;;;;;;2.22;0.50;;;;;;;;;;5052116;28;20136;-65
2021/07/16 01:03:52;;;;;;;1.08;0.50;;;;;;;;;;5060786;22;20045;-60
2021/07/16 01:06:20;;;;;;;0.55;0.40;;;;;;;;;;5035995;28;20077;-60
2021/07/16 01:08:49;;;;;;;1.42;0.55;;;;;;;;;;5035813;28;20050;-60
2021/07/16 01:11:17;;;;;;;2.60;0.70;;;;;;;;;;5035741;28;20073;-60
2021/07/16 01:13:45;;;;;;;1.77;0.60;;;;;;;;;;5036472;28;20081;-60
2021/07/16 01:16:14;;;;;;;1.10;0.50;;;;;;;;;;5036228;28;20420;-60
2021/07/16 01:18:43;;;;;;;1.35;0.80;;;;;;;;;;5035867;28;20045;-60
2021/07/16 01:21:12;;;;;;;2.45;0.70;;;;;;;;;;5035975;28;20081;-60
2021/07/16 01:23:42;;;;;;;1.45;0.50;;;;;;;;;;5035571;28;20096;-60
2021/07/16 01:26:10;;;;;;;1.75;0.47;;;;;;;;;;5035875;28;20081;-60
2021/07/16 01:28:39;;;;;;;1.30;0.60;;;;;;;;;;5035653;28;20060;-60
2021/07/16 01:31:09;;;;;;;0.60;0.60;;;;;;;;;;5035763;28;20085;-60
2021/07/16 01:33:37;;;;;;;0.70;0.57;;;;;;;;;;5035351;28;20048;-60
2021/07/16 01:36:06;;;;;;;1.75;0.65;;;;;;;;;;5035537;28;20592;-60
2021/07/16 01:38:34;;;;;;;2.17;0.77;;;;;;;;;;5035623;28;20069;-60
2021/07/16 01:41:07;;;;;;;2.25;0.80;;;;;;;;;;5036052;28;20072;-60
2021/07/16 01:43:35;;;;;;;3.70;0.80;;;;;;;;;;5035874;28;20133;-60
2021/07/16 01:46:04;;;;;;;2.00;0.77;;;;;;;;;;5035103;28;20511;-60
2021/07/16 01:48:33;;;;;;;1.00;0.60;;;;;;;;;;5035859;28;20472;-60
2021/07/16 01:51:02;;;;;;;7.45;0.70;;;;;;;;;;5035835;28;20080;-60
2021/07/16 01:53:30;;;;;;;2.60;0.77;;;;;;;;;;5035270;28;20053;-60
2021/07/16 01:55:59;;;;;;;1.45;0.60;;;;;;;;;;5035299;28;20042;-60
2021/07/16 01:58:28;;;;;;;1.38;0.60;;;;;;;;;;5035895;28;20503;-60
2021/07/16 02:00:56;;;;;;;3.08;0.70;;;;;;;;;;5038859;28;20084;-60
2021/07/16 02:03:25;;;;;;;4.78;0.98;;;;;;;;;;5036414;28;20535;-60
2021/07/16 02:05:53;;;;;;;0.40;0.40;;;;;;;;;;5034271;28;20165;-60
2021/07/16 02:08:22;;;;;;;4.68;0.80;;;;;;;;;;5032012;28;20429;-60
2021/07/16 02:10:53;;;;;;;5.80;0.80;;;;;;;;;;5030072;28;20049;-60
2021/07/16 02:13:22;;;;;;;0.73;0.50;;;;;;;;;;5030246;28;20053;-60
2021/07/16 02:15:52;;;;;;;1.40;0.77;;;;;;;;;;5026893;28;20115;-60
2021/07/16 02:18:21;;;;;;;1.00;0.30;;;;;;;;;;5030438;28;20049;-60
2021/07/16 02:20:49;;;;;;;1.08;0.60;;;;;;;;;;5015318;28;20049;-60
2021/07/16 02:23:18;;;;;;;5.07;0.80;;;;;;;;;;5030566;28;20052;-60
2021/07/16 02:25:47;;;;;;;3.40;0.70;;;;;;;;;;5030519;28;20045;-60
2021/07/16 02:28:16;;;;;;;2.63;0.70;;;;;;;;;;5031656;28;20176;-60
2021/07/16 02:30:44;;;;;;;2.90;0.50;;;;;;;;;;5030284;28;20053;-60
2021/07/16 02:33:14;;;;;;;1.05;0.50;;;;;;;;;;5030297;28;20096;-60
2021/07/16 02:35:44;;;;;;;3.78;0.60;;;;;;;;;;5029612;28;20073;-60
2021/07/16 02:38:13;;;;;;;0.95;0.60;;;;;;;;;;5030949;28;20128;-60
2021/07/16 02:40:41;;;;;;;2.25;0.95;;;;;;;;;;5029928;28;20042;-60
2021/07/16 02:43:09;;;;;;;3.15;1.17;;;;;;;;;;5028939;28;20476;-60
2021/07/16 02:45:38;;;;;;;3.22;1.20;;;;;;;;;;5030743;28;20045;-60
2021/07/16 02:48:07;;;;;;;4.88;1.48;;;;;;;;;;5030652;28;20076;-60
2021/07/16 02:50:38;;;;;;;2.83;1.23;;;;;;;;;;5029851;28;20041;-60
2021/07/16 02:53:06;;;;;;;2.33;1.05;;;;;;;;;;5021592;28;20049;-60
2021/07/16 02:55:35;;;;;;;3.05;1.02;;;;;;;;;;5028405;28;20065;-60
2021/07/16 02:58:03;;;;;;;2.33;1.00;;;;;;;;;;5031198;28;20049;-60
2021/07/16 03:00:31;;;;;;;4.40;0.90;;;;;;;;;;5030654;28;20172;-60
2021/07/16 03:03:00;;;;;;;3.42;0.80;;;;;;;;;;5030107;28;20052;-60
2021/07/16 03:05:31;;;;;;;4.97;2.55;;;;;;;;;;5048654;28;20168;-61
2021/07/16 03:08:00;;;;;;;3.15;1.00;;;;;;;;;;5047914;28;20111;-61
2021/07/16 03:10:30;;;;;;;1.88;0.98;;;;;;;;;;5049814;28;20067;-61
2021/07/16 03:13:00;;;;;;;1.73;0.70;;;;;;;;;;5042623;28;20135;-61
2021/07/16 03:15:29;;;;;;;1.48;0.60;;;;;;;;;;5049696;28;20431;-61
2021/07/16 03:17:58;;;;;;;1.40;0.63;;;;;;;;;;5049958;28;20136;-60
2021/07/16 03:20:27;;;;;;;3.33;0.80;;;;;;;;;;5050016;28;20063;-61
2021/07/16 03:22:55;;;;;;;3.58;0.65;;;;;;;;;;5051719;28;20044;-61
2021/07/16 03:25:26;;;;;;;1.15;0.70;;;;;;;;;;5050962;28;20136;-61
2021/07/16 03:27:54;;;;;;;2.30;0.50;;;;;;;;;;5050018;28;20051;-61
2021/07/16 03:30:26;;;;;;;3.88;0.80;;;;;;;;;;5049971;28;20052;-61
2021/07/16 03:32:55;;;;;;;0.98;0.68;;;;;;;;;;5050276;28;20083;-61
2021/07/16 03:35:24;;;;;;;2.30;0.70;;;;;;;;;;5048720;28;20139;-61
2021/07/16 03:37:53;;;;;;;1.80;0.70;;;;;;;;;;5049989;28;20163;-61
2021/07/16 03:40:23;;;;;;;2.90;0.70;;;;;;;;;;5049311;28;20156;-61
2021/07/16 03:42:52;;;;;;;1.67;0.80;;;;;;;;;;5048983;28;20469;-60
2021/07/16 03:45:21;;;;;;;1.23;0.60;;;;;;;;;;5035452;28;20111;-60
2021/07/16 03:47:50;;;;;;;2.70;0.70;;;;;;;;;;5048410;28;20144;-60
2021/07/16 03:50:20;;;;;;;1.85;0.50;;;;;;;;;;5048655;28;20061;-60
2021/07/16 03:52:48;;;;;;;3.40;1.48;;;;;;;;;;5047516;28;20045;-60
2021/07/16 03:55:17;;;;;;;2.45;0.77;;;;;;;;;;5048780;28;20512;-60
2021/07/16 03:57:46;;;;;;;3.97;1.10;;;;;;;;;;5049639;28;20049;-60
2021/07/16 04:00:17;;;;;;;2.55;0.77;;;;;;;;;;5049549;28;20404;-60
2021/07/16 04:02:45;;;;;;;1.85;0.65;;;;;;;;;;5042678;28;20156;-60
2021/07/16 04:05:14;;;;;;;1.20;0.70;;;;;;;;;;5040289;28;20151;-60
2021/07/16 04:07:47;;;;;;;1.20;0.50;;;;;;;;;;5048597;28;20108;-60
2021/07/16 04:10:15;;;;;;;5.20;0.80;;;;;;;;;;5046339;28;20041;-60
2021/07/16 04:12:44;;;;;;;1.88;1.05;;;;;;;;;;5047284;28;20490;-60
2021/07/16 04:15:12;;;;;;;1.70;0.60;;;;;;;;;;5048922;28;20065;-60
2021/07/16 04:17:48;;;;;;;3.07;0.82;;;;;;;;;;1515483;28;10022787;-61
2021/07/16 04:20:17;;;;;;;2.60;0.80;;;;;;;;;;4001795;28;10001194;-60
2021/07/16 04:22:45;;;;;;;3.42;0.90;;;;;;;;;;5048840;28;20049;-60
2021/07/16 04:25:16;;;;;;;7.45;0.98;;;;;;;;;;5053102;28;20467;-60
2021/07/16 04:27:45;;;;;;;1.65;0.70;;;;;;;;;;5049655;28;20076;-60
2021/07/16 04:30:15;;;;;;;1.20;0.70;;;;;;;;;;5048578;28;20045;-60
2021/07/16 04:32:43;;;;;;;2.55;0.70;;;;;;;;;;5047941;28;20128;-60
2021/07/16 04:35:14;;;;;;;1.23;0.70;;;;;;;;;;5048911;28;20162;-60
2021/07/16 04:37:42;;;;;;;3.50;0.60;;;;;;;;;;5051372;28;20045;-60
2021/07/16 04:40:12;;;;;;;1.52;0.63;;;;;;;;;;5052785;28;20122;-61
2021/07/16 04:42:40;;;;;;;2.67;0.70;;;;;;;;;;5053067;28;20457;-61
2021/07/16 04:45:09;;;;;;;1.88;0.75;;;;;;;;;;5050187;28;20155;-61
2021/07/16 04:47:38;;;;;;;2.63;0.90;;;;;;;;;;5051117;28;20493;-61
2021/07/16 04:50:07;;;;;;;0.73;0.52;;;;;;;;;;5051777;28;20545;-61
2021/07/16 04:52:39;;;;;;;2.65;0.77;;;;;;;;;;5052059;28;20527;-61
2021/07/16 04:55:09;;;;;;;1.42;0.73;;;;;;;;;;5042650;28;20163;-61
2021/07/16 04:57:38;;;;;;;1.67;0.70;;;;;;;;;;5052167;28;20523;-60
2021/07/16 05:00:08;;;;;;;2.95;0.70;;;;;;;;;;5048002;28;20111;-61
2021/07/16 05:02:36;;;;;;;1.65;0.90;;;;;;;;;;5039726;28;20091;-61
2021/07/16 05:05:05;;;;;;;1.77;0.95;;;;;;;;;;5034452;28;20061;-61
2021/07/16 05:07:33;;;;;;;3.03;0.73;;;;;;;;;;5030539;28;20053;-61
2021/07/16 05:10:04;;;;;;;2.08;0.82;;;;;;;;;;5034570;28;20080;-60
2021/07/16 05:12:34;;;;;;;2.63;0.80;;;;;;;;;;5033320;28;20493;-60
2021/07/16 05:15:03;;;;;;;4.53;1.20;;;;;;;;;;5031256;28;20053;-60
2021/07/16 05:17:31;;;;;;;1.55;0.93;;;;;;;;;;5029865;28;20077;-60
2021/07/16 05:19:59;;;;;;;2.05;1.08;;;;;;;;;;5029574;28;20046;-60
2021/07/16 05:22:27;;;;;;;1.42;0.82;;;;;;;;;;5031718;28;20136;-60
2021/07/16 05:24:56;;;;;;;4.30;0.90;;;;;;;;;;5030779;28;20080;-60
2021/07/16 05:27:25;;;;;;;1.17;0.70;;;;;;;;;;5028265;28;20136;-60
2021/07/16 05:29:54;;;;;;;2.92;1.00;;;;;;;;;;5028327;28;20128;-60
2021/07/16 05:32:22;;;;;;;1.23;0.70;;;;;;;;;;5032108;28;20073;-60
2021/07/16 05:34:50;;;;;;;2.78;1.00;;;;;;;;;;5031077;28;20092;-60
2021/07/16 05:37:19;;;;;;;3.88;1.08;;;;;;;;;;5029019;28;20081;-60
2021/07/16 05:39:48;;;;;;;1.65;0.80;;;;;;;;;;5032703;28;20136;-60
2021/07/16 05:42:16;;;;;;;1.30;0.60;;;;;;;;;;5013740;28;20505;-60
2021/07/16 05:44:46;;;;;;;2.35;0.90;;;;;;;;;;5029732;28;20045;-60
2021/07/16 05:47:15;;;;;;;2.03;0.63;;;;;;;;;;5028833;28;20045;-60
2021/07/16 05:49:44;;;;;;;4.28;1.00;;;;;;;;;;5024539;28;20045;-60
2021/07/16 05:52:12;;;;;;;4.30;1.00;;;;;;;;;;5030259;28;20117;-60
2021/07/16 05:54:40;;;;;;;3.28;1.17;;;;;;;;;;5030161;28;20092;-60
2021/07/16 05:57:09;;;;;;;2.05;1.35;;;;;;;;;;5029472;28;20133;-60
2021/07/16 05:59:37;;;;;;;3.78;1.58;;;;;;;;;;5030068;28;20124;-60
2021/07/16 06:02:07;;;;;;;8.85;1.80;;;;;;;;;;5028559;28;20465;-60
2021/07/16 06:04:36;;;;;;;6.68;1.80;;;;;;;;;;5027874;28;20045;-60
2021/07/16 06:07:04;;;;;;;3.28;1.90;;;;;;;;;;5024275;28;20119;-60
2021/07/16 06:09:32;;;;;;;4.75;2.55;;;;;;;;;;5032355;28;20095;-60
2021/07/16 06:12:01;;;;;;;4.22;2.78;;;;;;;;;;5030812;28;20057;-60
2021/07/16 06:14:30;;;;;;;7.47;2.90;;;;;;;;;;5030042;28;20100;-60
2021/07/16 06:16:58;;;;;;;5.20;3.70;;;;;;;;;;5030889;28;20081;-60
2021/07/16 06:19:29;;;;;;;4.80;2.72;;;;;;;;;;5034401;28;20092;-60
2021/07/16 06:21:57;;;;;;;4.35;2.40;;;;;;;;;;5025978;28;20172;-61
2021/07/16 06:24:26;;;;;;;4.10;2.72;;;;;;;;;;5032176;28;20049;-61
2021/07/16 06:26:55;;;;;;;4.20;2.80;;;;;;;;;;5030888;28;20139;-60
2021/07/16 06:29:23;;;;;;;4.20;2.45;;;;;;;;;;5025581;28;20450;-61
2021/07/16 06:31:51;;;;;;;5.38;3.38;;;;;;;;;;5024209;28;20521;-61
2021/07/16 06:34:21;;;;;;;5.75;2.67;;;;;;;;;;5026481;28;20509;-61
2021/07/16 06:36:50;;;;;;;3.13;2.53;;;;;;;;;;5024490;28;20045;-61
2021/07/16 06:39:19;;;;;;;4.38;2.63;;;;;;;;;;5029924;28;20093;-60
2021/07/16 06:41:47;;;;;;;3.50;2.10;;;;;;;;;;5030128;28;20725;-61
2021/07/16 06:44:15;;;;;;;5.05;2.50;;;;;;;;;;5030544;28;20084;-60
2021/07/16 06:46:44;;;;;;;4.65;2.88;;;;;;;;;;5024845;28;20144;-60
2021/07/16 06:49:12;;;;;;;2.55;1.83;;;;;;;;;;5030579;28;20060;-60
2021/07/16 06:51:40;;;;;;;2.67;2.30;;;;;;;;;;5030117;28;20096;-61
2021/07/16 06:54:10;;;;;;;5.45;2.40;;;;;;;;;;5029131;28;20468;-61
2021/07/16 06:56:39;;;;;;;2.40;1.92;;;;;;;;;;5023993;28;20136;-60
2021/07/16 06:59:09;;;;;;;1.70;1.58;;;;;;;;;;5023400;28;20050;-60
2021/07/16 07:01:38;;;;;;;2.35;1.25;;;;;;;;;;5029851;28;20049;-61
2021/07/16 07:04:07;;;;;;;1.58;1.13;;;;;;;;;;5028288;28;20144;-61
2021/07/16 07:06:36;;;;;;;3.15;1.52;;;;;;;;;;5029825;28;20129;-61
2021/07/16 07:09:05;;;;;;;2.28;1.50;;;;;;;;;;5027503;28;20045;-61
2021/07/16 07:11:35;;;;;;;5.28;1.15;;;;;;;;;;5023707;28;20891;-60
2021/07/16 07:14:03;;;;;;;1.48;1.00;;;;;;;;;;5029217;28;20140;-61
2021/07/16 07:16:32;;;;;;;1.15;1.05;;;;;;;;;;5030080;28;20084;-61
2021/07/16 07:19:00;;;;;;;1.10;0.90;;;;;;;;;;5029418;28;20073;-60
2021/07/16 07:21:29;;;;;;;2.75;1.10;;;;;;;;;;5030573;28;20053;-60
2021/07/16 07:23:57;;;;;;;3.40;1.10;;;;;;;;;;5021306;28;20401;-61
2021/07/16 07:26:26;;;;;;;2.10;1.40;;;;;;;;;;5025998;28;20148;-60
2021/07/16 07:28:56;;;;;;;3.25;1.00;;;;;;;;;;5028532;28;20401;-60
2021/07/16 07:31:25;;;;;;;2.95;0.90;;;;;;;;;;5028477;28;20101;-60
2021/07/16 07:33:54;;;;;;;3.08;1.30;;;;;;;;;;5028814;28;20045;-61
2021/07/16 07:36:22;;;;;;;1.55;1.10;;;;;;;;;;5016206;28;20049;-60
2021/07/16 07:38:50;;;;;;;4.15;1.45;;;;;;;;;;5028518;28;20552;-60
2021/07/16 07:41:19;;;;;;;1.88;1.00;;;;;;;;;;5028813;28;20053;-60
2021/07/16 07:43:47;;;;;;;2.70;0.82;;;;;;;;;;5027686;28;20461;-60
2021/07/16 07:46:18;;;;;;;1.70;1.05;;;;;;;;;;5025107;28;20045;-60
2021/07/16 07:48:50;;;;;;;3.05;1.15;;;;;;;;;;5020373;28;20058;-58
2021/07/16 07:51:19;;;;;;;2.85;1.00;;;;;;;;;;5020509;28;20548;-58
2021/07/16 07:53:47;;;;;;;2.17;1.20;;;;;;;;;;5023485;28;20428;-58
2021/07/16 07:56:30;;;;;;;1.35;1.10;;;;;;;;;;5028398;28;20045;-58
2021/07/16 07:58:58;;;;;;;5.55;1.02;;;;;;;;;;5025286;28;20057;-59
2021/07/16 08:01:33;;;;;;;1.67;0.93;;;;;;;;;;5024962;28;20053;-58
2021/07/16 08:04:02;;;;;;;2.00;1.13;;;;;;;;;;5024443;28;20073;-59
2021/07/16 08:06:30;;;;;;;1.95;0.90;;;;;;;;;;5028455;28;20131;-59
2021/07/16 08:08:59;;;;;;;3.67;1.00;;;;;;;;;;5025936;28;20054;-59
2021/07/16 08:11:30;;;;;;;1.88;1.20;;;;;;;;;;5027396;28;20061;-59
2021/07/16 08:13:59;;;;;;;3.47;1.10;;;;;;;;;;5033056;28;20060;-59
2021/07/16 08:16:28;;;;;;;2.28;1.30;;;;;;;;;;5032082;28;20053;-59
2021/07/16 08:18:58;;;;;;;1.25;0.90;;;;;;;;;;5032789;28;20061;-58
2021/07/16 08:21:27;;;;;;;3.05;1.10;;;;;;;;;;5026873;28;20046;-58
2021/07/16 08:23:55;;;;;;;4.35;1.58;;;;;;;;;;5031609;28;20061;-59
2021/07/16 08:26:24;;;;;;;3.45;1.52;;;;;;;;;;5032547;28;20424;-59
2021/07/16 08:28:53;;;;;;;5.15;1.50;;;;;;;;;;5031816;28;20038;-59
2021/07/16 08:31:21;;;;;;;6.32;1.40;;;;;;;;;;5030906;28;20517;-59
2021/07/16 08:33:50;;;;;;;3.00;1.83;;;;;;;;;;5026271;28;20077;-59
2021/07/16 08:36:20;;;;;;;6.40;1.85;;;;;;;;;;5029847;28;20081;-58
2021/07/16 08:38:49;;;;;;;1.20;1.10;;;;;;;;;;5028408;28;20050;-59
2021/07/16 08:41:21;;;;;;;7.07;1.60;;;;;;;;;;5032308;28;20084;-58
2021/07/16 08:43:50;;;;;;;4.47;1.40;;;;;;;;;;5016680;28;20056;-59
2021/07/16 08:46:19;;;;;;;3.28;1.50;;;;;;;;;;5024892;28;20057;-59
2021/07/16 08:48:48;;;;;;;10.35;1.50;;;;;;;;;;5031501;28;20123;-58
2021/07/16 08:51:18;;;;;;;2.40;1.50;;;;;;;;;;5033582;28;20056;-58
2021/07/16 08:53:50;;;;;;;2.33;1.50;;;;;;;;;;5027319;28;20428;-59
2021/07/16 08:56:24;;;;;;;2.58;1.85;;;;;;;;;;5033153;28;20385;-59
2021/07/16 08:58:52;;;;;;;7.43;2.22;;;;;;;;;;5033054;28;20169;-58
2021/07/16 09:01:20;;;;;;;3.50;1.98;;;;;;;;;;5030241;28;20052;-58
2021/07/16 09:04:00;;;;;;;3.22;1.52;;;;;;;;;;5025282;28;20490;-59
2021/07/16 09:06:43;;;;;;;7.80;1.50;;;;;;;;;;5013005;28;20080;-58
2021/07/16 09:09:15;;;;;;;2.58;1.70;;;;;;;;;;5012982;28;20052;-58
2021/07/16 09:11:44;;;;;;;5.30;1.75;;;;;;;;;;5012664;28;20045;-59
2021/07/16 09:14:20;;;;;;;2.60;1.52;;;;;;;;;;5006511;28;20045;-58
2021/07/16 09:17:00;;;;;;;5.78;1.48;;;;;;;;;;5013466;28;20136;-60
2021/07/16 09:19:30;;;;;;;3.20;1.40;;;;;;;;;;5012923;28;20497;-59
2021/07/16 09:22:08;;;;;;;4.35;2.20;;;;;;;;;;4998166;28;20046;-59
2021/07/16 09:24:43;;;;;;;3.28;1.70;;;;;;;;;;5011865;28;20069;-59
2021/07/16 09:27:32;;;;;;;2.50;1.65;;;;;;;;;;5006830;28;20069;-59
2021/07/16 09:30:15;;;;;;;4.40;1.50;;;;;;;;;;5008286;28;20042;-59
2021/07/16 09:32:45;;;;;;;3.63;1.42;;;;;;;;;;5012531;28;20054;-59
2021/07/16 09:35:18;;;;;;;2.47;1.42;;;;;;;;;;5011646;28;20486;-59
2021/07/16 09:37:51;;;;;;;1.23;1.02;;;;;;;;;;5012967;28;20061;-59
2021/07/16 09:40:28;;;;;;;3.88;1.10;;;;;;;;;;5013548;28;20046;-59
2021/07/16 09:43:04;;;;;;;4.28;1.40;;;;;;;;;;5012894;28;20050;-59
2021/07/16 09:45:32;;;;;;;1.92;1.17;;;;;;;;;;5012033;28;20481;-59
2021/07/16 09:48:16;;;;;;;3.50;1.38;;;;;;;;;;5013161;28;20088;-60
2021/07/16 09:50:46;;;;;;;2.00;1.27;;;;;;;;;;5012909;28;20445;-60
2021/07/16 09:53:19;;;;;;;1.85;0.98;;;;;;;;;;5010080;28;20054;-60
2021/07/16 09:55:49;;;;;;;2.65;1.10;;;;;;;;;;5010600;28;20052;-57
2021/07/16 09:58:24;;;;;;;1.25;1.10;;;;;;;;;;5012785;28;20060;-57
2021/07/16 10:00:53;;;;;;;2.50;1.30;;;;;;;;;;5012235;28;20057;-58
2021/07/16 10:03:22;;;;;;;4.65;1.40;;;;;;;;;;5013916;28;20102;-58
2021/07/16 10:05:52;;;;;;;4.72;1.40;;;;;;;;;;5031378;28;20053;-59
2021/07/16 10:08:21;;;;;;;3.63;1.48;;;;;;;;;;5027295;28;20128;-59
2021/07/16 10:10:51;;;;;;;1.45;1.20;;;;;;;;;;5029876;28;20048;-59
2021/07/16 10:13:19;;;;;;;5.45;1.15;;;;;;;;;;5031162;28;20049;-58
2021/07/16 10:15:48;;;;;;;2.70;1.00;;;;;;;;;;5029451;28;20071;-58
2021/07/16 10:18:16;;;;;;;5.47;1.38;;;;;;;;;;5030587;28;20053;-58
2021/07/16 10:20:45;;;;;;;4.45;1.00;;;;;;;;;;5028805;28;20515;-58
2021/07/16 10:23:14;;;;;;;1.20;0.90;;;;;;;;;;5023479;28;20045;-57
2021/07/16 10:25:43;;;;;;;4.07;1.23;;;;;;;;;;5030618;28;20045;-58
2021/07/16 10:28:28;;;;;;;1.92;0.95;;;;;;;;;;5030349;28;20398;-57
2021/07/16 10:30:57;;;;;;;1.58;0.90;;;;;;;;;;5011351;28;20116;-57
2021/07/16 10:33:33;;;;;;;3.58;1.30;;;;;;;;;;5014586;28;20108;-57
2021/07/16 10:36:02;;;;;;;2.33;0.90;;;;;;;;;;5023823;28;20126;-57
2021/07/16 10:38:32;;;;;;;1.92;1.30;;;;;;;;;;5030168;28;20405;-57
2021/07/16 10:41:01;;;;;;;3.60;1.33;;;;;;;;;;5032600;28;20093;-57
2021/07/16 10:43:43;;;;;;;2.10;0.88;;;;;;;;;;5028999;28;20278;-57
2021/07/16 10:46:32;;;;;;;2.00;0.80;;;;;;;;;;5029209;28;20107;-57
2021/07/16 10:49:01;;;;;;;2.35;1.30;;;;;;;;;;5026568;28;20124;-57
2021/07/16 10:51:30;;;;;;;3.97;1.08;;;;;;;;;;5029312;28;20049;-57
2021/07/16 10:53:59;;;;;;;3.33;1.42;;;;;;;;;;5017222;28;20097;-57
2021/07/16 10:56:41;;;;;;;2.20;0.90;;;;;;;;;;5022033;28;20140;-58
2021/07/16 10:59:11;;;;;;;2.65;0.70;;;;;;;;;;5027098;28;20168;-58
2021/07/16 11:01:41;;;;;;;1.38;1.00;;;;;;;;;;5027799;28;20338;-58
2021/07/16 11:04:25;;;;;;;1.38;0.85;;;;;;;;;;5027311;28;20122;-57
2021/07/16 11:06:57;;;;;;;3.38;1.20;;;;;;;;;;5029137;28;20072;-58
2021/07/16 11:09:33;;;;;;;1.67;0.98;;;;;;;;;;5025754;28;20049;-58
2021/07/16 11:12:22;;;;;;;4.22;1.20;;;;;;;;;;5027276;28;20049;-58
2021/07/16 11:14:52;;;;;;;2.97;1.08;;;;;;;;;;5028452;28;20398;-57
2021/07/16 11:17:28;;;;;;;1.98;1.00;;;;;;;;;;5014825;28;20105;-58
2021/07/16 11:20:24;;;;;;;1.90;1.08;;;;;;;;;;5026531;28;20046;-59
2021/07/16 11:23:02;;;;;;;1.27;0.68;;;;;;;;;;4977960;28;20053;-58
2021/07/16 11:25:33;;;;;;;2.17;1.13;;;;;;;;;;5027435;28;20057;-57
2021/07/16 11:28:02;;;;;;;2.60;0.93;;;;;;;;;;5017566;28;20048;-58
2021/07/16 11:30:32;;;;;;;2.83;0.90;;;;;;;;;;5029358;28;20103;-57
2021/07/16 11:33:05;;;;;;;2.08;0.80;;;;;;;;;;5029998;28;20057;-58
2021/07/16 11:35:34;;;;;;;2.85;0.98;;;;;;;;;;5027591;28;20081;-58
2021/07/16 11:38:06;;;;;;;1.55;0.85;;;;;;;;;;5024904;28;20399;-58
2021/07/16 11:40:35;;;;;;;1.90;0.80;;;;;;;;;;5027545;28;20042;-57
2021/07/16 11:43:05;;;;;;;1.15;0.70;;;;;;;;;;5028664;28;20132;-58
2021/07/16 11:45:36;;;;;;;2.13;0.70;;;;;;;;;;5031756;28;20148;-58
2021/07/16 11:48:14;;;;;;;2.45;0.75;;;;;;;;;;5029109;28;20349;-57
2021/07/16 11:50:46;;;;;;;1.70;0.77;;;;;;;;;;5022129;28;20064;-58
2021/07/16 11:53:14;;;;;;;1.17;0.70;;;;;;;;;;5030652;28;20061;-58
2021/07/16 11:55:44;;;;;;;2.13;0.80;;;;;;;;;;5027355;28;20128;-58
2021/07/16 11:58:13;;;;;;;4.68;1.60;;;;;;;;;;5031253;28;20049;-58
2021/07/16 12:00:47;;;;;;;1.00;0.85;;;;;;;;;;5029535;28;20050;-57
2021/07/16 12:03:18;;;;;;;2.60;0.88;;;;;;;;;;5029754;28;20128;-58
2021/07/16 12:05:49;;;;;;;1.35;0.80;;;;;;;;;;5032189;28;20084;-57
2021/07/16 12:08:19;;;;;;;0.93;0.70;;;;;;;;;;5031348;28;20124;-58
2021/07/16 12:10:48;;;;;;;2.75;0.70;;;;;;;;;;5026963;28;20049;-57
2021/07/16 12:13:17;;;;;;;3.92;0.80;;;;;;;;;;5026179;28;20080;-58
2021/07/16 12:15:59;;;;;;;1.95;0.73;;;;;;;;;;5030016;28;20076;-58
2021/07/16 12:18:27;;;;;;;3.25;0.77;;;;;;;;;;5032396;28;20045;-58
2021/07/16 12:20:56;;;;;;;1.95;1.10;;;;;;;;;;5029364;28;20555;-57
2021/07/16 12:23:25;;;;;;;2.17;0.63;;;;;;;;;;5032309;28;20087;-58
2021/07/16 12:26:09;;;;;;;1.10;0.68;;;;;;;;;;5030151;28;20057;-57
2021/07/16 12:28:38;;;;;;;1.90;0.90;;;;;;;;;;5030308;28;20057;-57
2021/07/16 12:31:08;;;;;;;1.70;0.77;;;;;;;;;;5029742;28;20045;-57
2021/07/16 12:33:37;;;;;;;1.08;0.80;;;;;;;;;;5021745;28;20150;-58
2021/07/16 12:36:06;;;;;;;1.70;0.80;;;;;;;;;;5030472;28;20076;-58
2021/07/16 12:38:40;;;;;;;2.70;0.70;;;;;;;;;;5029752;28;20045;-57
2021/07/16 12:41:10;;;;;;;2.80;0.65;;;;;;;;;;5029806;28;20073;-58
2021/07/16 12:43:38;;;;;;;2.08;0.70;;;;;;;;;;5031303;28;20053;-58
2021/07/16 12:46:08;;;;;;;2.03;0.70;;;;;;;;;;5027823;28;20136;-57
2021/07/16 12:48:37;;;;;;;0.70;0.60;;;;;;;;;;5021142;28;20137;-58
2021/07/16 12:51:07;;;;;;;3.88;0.70;;;;;;;;;;5013976;28;20217;-58
2021/07/16 12:53:37;;;;;;;4.10;1.13;;;;;;;;;;5031543;28;20084;-57
2021/07/16 12:56:21;;;;;;;0.93;0.70;;;;;;;;;;5029448;28;20057;-58
2021/07/16 12:58:50;;;;;;;4.03;0.93;;;;;;;;;;5028133;28;20045;-58
2021/07/16 13:01:27;;;;;;;0.65;0.57;;;;;;;;;;5022363;28;20568;-57
2021/07/16 13:03:56;;;;;;;3.25;0.70;;;;;;;;;;5028723;28;20053;-58
2021/07/16 13:06:28;;;;;;;0.68;0.40;;;;;;;;;;5011924;28;20065;-58
2021/07/16 13:09:18;;;;;;;1.17;0.75;;;;;;;;;;5024172;28;20374;-58
2021/07/16 13:11:58;;;;;;;0.82;0.50;;;;;;;;;;5030312;28;20069;-58
2021/07/16 13:14:28;;;;;;;3.15;0.60;;;;;;;;;;5029587;28;20057;-58
2021/07/16 13:17:15;;;;;;;0.73;0.60;;;;;;;;;;5020025;28;20140;-57
2021/07/16 13:19:45;;;;;;;0.52;0.50;;;;;;;;;;5029227;28;20103;-59
2021/07/16 13:22:13;;;;;;;2.03;0.52;;;;;;;;;;5030299;28;20103;-57
2021/07/16 13:24:43;;;;;;;2.88;0.63;;;;;;;;;;5027018;28;20132;-57
2021/07/16 13:27:11;;;;;;;2.85;0.73;;;;;;;;;;5029786;28;20072;-57
2021/07/16 13:29:40;;;;;;;1.70;0.55;;;;;;;;;;5025728;28;20429;-57
2021/07/16 13:32:08;;;;;;;1.13;0.60;;;;;;;;;;5012629;28;20490;-57
2021/07/16 13:34:37;;;;;;;1.20;0.55;;;;;;;;;;5029592;28;20490;-57
2021/07/16 13:37:07;;;;;;;1.02;0.57;;;;;;;;;;5028805;28;20136;-57
2021/07/16 13:39:35;;;;;;;0.50;0.50;;;;;;;;;;5027008;28;20056;-57
2021/07/16 13:42:04;;;;;;;1.05;0.70;;;;;;;;;;5027440;28;20068;-57
2021/07/16 13:44:33;;;;;;;1.05;0.40;;;;;;;;;;5021439;28;20057;-57
2021/07/16 13:47:02;;;;;;;0.98;0.40;;;;;;;;;;5030433;28;20037;-57
2021/07/16 13:49:31;;;;;;;4.43;0.68;;;;;;;;;;5027644;28;20053;-57
2021/07/16 13:51:59;;;;;;;0.55;0.50;;;;;;;;;;5029151;28;20100;-57
2021/07/16 13:54:30;;;;;;;1.60;0.55;;;;;;;;;;5030017;28;20049;-57
2021/07/16 13:56:58;;;;;;;0.70;0.50;;;;;;;;;;5030946;28;20050;-58
2021/07/16 13:59:27;;;;;;;0.75;0.50;;;;;;;;;;5025693;28;20045;-58
2021/07/16 14:01:56;;;;;;;1.20;0.40;;;;;;;;;;5027181;28;20053;-57
2021/07/16 14:04:27;;;;;;;1.35;0.90;;;;;;;;;;5027735;28;20049;-58
2021/07/16 14:06:56;;;;;;;0.60;0.40;;;;;;;;;;5028118;28;20057;-59
2021/07/16 14:09:24;;;;;;;2.65;0.40;;;;;;;;;;5028044;28;20042;-58
2021/07/16 14:11:57;;;;;;;0.57;0.43;;;;;;;;;;5029263;28;20045;-59
2021/07/16 14:14:27;;;;;;;;;;;;;;;;;;5029570;28;20038;-58
2021/07/16 14:16:55;;;;;;;0.55;0.35;;;;;;;;;;5028925;28;20384;-58
2021/07/16 14:19:24;;;;;;;0.85;0.50;;;;;;;;;;5025318;28;20049;-58
2021/07/16 14:21:52;;;;;;;3.97;0.85;;;;;;;;;;5031003;28;20042;-58
2021/07/16 14:24:22;;;;;;;0.63;0.40;;;;;;;;;;5030867;28;20072;-58
2021/07/16 14:26:50;;;;;;;0.40;0.40;;;;;;;;;;5030842;28;20091;-58
2021/07/16 14:29:20;;;;;;;1.45;0.43;;;;;;;;;;5031324;28;20045;-58
2021/07/16 14:31:49;;;;;;;0.60;0.35;;;;;;;;;;5030581;28;20072;-58
2021/07/16 14:34:18;;;;;;;0.93;0.50;;;;;;;;;;5034396;28;20056;-58
2021/07/16 14:36:47;;;;;;;0.35;0.32;;;;;;;;;;5030564;28;20045;-58
2021/07/16 14:39:15;;;;;;;0.50;0.50;;;;;;;;;;5030823;28;20390;-58
2021/07/16 14:41:44;;;;;;;0.52;0.25;;;;;;;;;;5031417;28;20121;-58
2021/07/16 14:44:14;;;;;;;0.60;0.50;;;;;;;;;;5029390;28;20528;-59
2021/07/16 14:46:44;;;;;;;0.80;0.30;;;;;;;;;;5031067;28;20077;-58
2021/07/16 14:49:13;;;;;;;0.70;0.43;;;;;;;;;;5031311;28;20041;-58
2021/07/16 14:51:42;;;;;;;1.95;0.50;;;;;;;;;;5030978;28;20049;-58
2021/07/16 14:54:10;;;;;;;0.93;0.45;;;;;;;;;;5027760;28;20049;-58
2021/07/16 14:56:39;;;;;;;3.00;0.43;;;;;;;;;;5030617;28;20121;-57
2021/07/16 14:59:07;;;;;;;0.63;0.40;;;;;;;;;;5029544;28;20127;-58
2021/07/16 15:01:35;;;;;;;0.77;0.40;;;;;;;;;;5030245;28;20405;-58